createdAt,value
2023-04-27T00:00:15.589Z,6.28
2023-04-27T00:01:12.698Z,6.28
2023-04-27T00:01:46.620Z,6.28
2023-04-27T00:02:19.980Z,6.28
2023-04-27T00:02:53.604Z,6.28
2023-04-27T00:03:27.629Z,6.27
2023-04-27T00:04:02.053Z,6.27
2023-04-27T00:04:36.356Z,6.28
2023-04-27T00:05:11.901Z,6.27
2023-04-27T00:05:45.412Z,6.27
2023-04-27T00:06:19.004Z,6.27
2023-04-27T00:06:52.480Z,6.27
2023-04-27T00:07:26.797Z,6.28
2023-04-27T00:08:00.008Z,6.28
2023-04-27T00:08:33.241Z,6.27
2023-04-27T00:09:06.343Z,6.28
2023-04-27T00:09:39.403Z,6.28
2023-04-27T00:10:12.652Z,6.28
2023-04-27T00:10:46.264Z,6.28
2023-04-27T00:11:19.495Z,6.27
2023-04-27T00:11:52.727Z,6.27
2023-04-27T00:12:25.924Z,6.27
2023-04-27T00:12:59.108Z,6.27
2023-04-27T00:13:32.232Z,6.27
2023-04-27T00:14:05.416Z,6.28
2023-04-27T00:14:38.603Z,6.28
2023-04-27T00:15:11.883Z,6.28
2023-04-27T00:15:45.640Z,6.28
2023-04-27T00:16:18.872Z,6.28
2023-04-27T00:16:51.939Z,6.28
2023-04-27T00:17:25.253Z,6.28
2023-04-27T00:17:58.629Z,6.28
2023-04-27T00:18:32.421Z,6.28
2023-04-27T00:19:05.669Z,6.28
2023-04-27T00:19:39.959Z,6.28
2023-04-27T00:20:13.191Z,6.27
2023-04-27T00:20:46.341Z,6.27
2023-04-27T00:21:19.495Z,6.27
2023-04-27T00:21:52.669Z,6.26
2023-04-27T00:22:25.849Z,6.26
2023-04-27T00:22:59.015Z,6.26
2023-04-27T00:23:32.124Z,6.25
2023-04-27T00:24:05.654Z,6.26
2023-04-27T00:24:38.967Z,6.25
2023-04-27T00:25:12.406Z,6.25
2023-04-27T00:25:45.642Z,6.25
2023-04-27T00:26:18.927Z,6.24
2023-04-27T00:26:52.137Z,6.25
2023-04-27T00:27:25.395Z,6.24
2023-04-27T00:27:58.469Z,6.24
2023-04-27T00:28:31.689Z,6.23
2023-04-27T00:29:04.973Z,6.23
2023-04-27T00:29:38.155Z,6.23
2023-04-27T00:30:11.411Z,6.22
2023-04-27T00:30:45.354Z,6.22
2023-04-27T00:31:18.565Z,6.21
2023-04-27T00:31:51.756Z,6.21
2023-04-27T00:32:25.045Z,6.21
2023-04-27T00:32:58.313Z,6.21
2023-04-27T00:33:31.544Z,6.21
2023-04-27T00:34:04.902Z,6.21
2023-04-27T00:34:38.693Z,6.22
2023-04-27T00:35:12.072Z,6.21
2023-04-27T00:35:45.307Z,6.21
2023-04-27T00:36:18.633Z,6.22
2023-04-27T00:36:52.296Z,6.22
2023-04-27T00:37:25.436Z,6.22
2023-04-27T00:37:58.665Z,6.22
2023-04-27T00:38:31.900Z,6.22
2023-04-27T00:39:06.562Z,6.22
2023-04-27T00:39:39.979Z,6.22
2023-04-27T00:40:13.326Z,6.22
2023-04-27T00:40:46.500Z,6.22
2023-04-27T00:41:19.695Z,6.22
2023-04-27T00:41:53.852Z,6.22
2023-04-27T00:42:26.990Z,6.22
2023-04-27T00:43:00.209Z,6.22
2023-04-27T00:43:34.038Z,6.22
2023-04-27T00:44:07.204Z,6.22
2023-04-27T00:44:40.472Z,6.22
2023-04-27T00:45:13.783Z,6.22
2023-04-27T00:45:47.405Z,6.22
2023-04-27T00:46:21.030Z,6.22
2023-04-27T00:46:54.644Z,6.22
2023-04-27T00:47:29.392Z,6.22
2023-04-27T00:48:02.565Z,6.22
2023-04-27T00:48:35.799Z,6.21
2023-04-27T00:49:09.021Z,6.21
2023-04-27T00:49:42.297Z,6.21
2023-04-27T00:50:16.477Z,6.20
2023-04-27T00:50:49.883Z,6.21
2023-04-27T00:51:27.971Z,6.20
2023-04-27T00:52:01.361Z,6.20
2023-04-27T00:52:36.339Z,6.20
2023-04-27T00:53:09.694Z,6.20
2023-04-27T00:53:43.643Z,6.20
2023-04-27T00:54:19.089Z,6.19
2023-04-27T00:54:52.662Z,6.20
2023-04-27T00:55:26.054Z,6.19
2023-04-27T00:55:59.223Z,6.20
2023-04-27T00:56:32.310Z,6.20
2023-04-27T00:57:05.529Z,6.20
2023-04-27T00:57:39.173Z,6.20
2023-04-27T00:58:12.429Z,6.20
2023-04-27T00:58:45.640Z,6.20
2023-04-27T00:59:19.472Z,6.20
2023-04-27T00:59:52.746Z,6.20
2023-04-27T01:00:26.082Z,6.20
2023-04-27T01:01:00.212Z,6.20
2023-04-27T01:01:33.784Z,6.20
2023-04-27T01:02:07.053Z,6.19
2023-04-27T01:02:40.766Z,6.19
2023-04-27T01:03:14.477Z,6.20
2023-04-27T01:03:48.334Z,6.19
2023-04-27T01:04:22.684Z,6.19
2023-04-27T01:04:56.136Z,6.19
2023-04-27T01:05:31.268Z,6.19
2023-04-27T01:06:05.993Z,6.19
2023-04-27T01:06:39.520Z,6.18
2023-04-27T01:07:12.694Z,6.18
2023-04-27T01:07:46.009Z,6.18
2023-04-27T01:08:19.192Z,6.18
2023-04-27T01:08:52.522Z,6.18
2023-04-27T01:09:25.801Z,6.17
2023-04-27T01:09:58.938Z,6.18
2023-04-27T01:10:32.292Z,6.17
2023-04-27T01:11:05.717Z,6.17
2023-04-27T01:11:38.897Z,6.17
2023-04-27T01:12:12.147Z,6.17
2023-04-27T01:12:45.446Z,6.17
2023-04-27T01:13:18.721Z,6.17
2023-04-27T01:13:52.452Z,6.17
2023-04-27T01:14:25.533Z,6.17
2023-04-27T01:14:58.816Z,6.17
2023-04-27T01:15:32.066Z,6.17
2023-04-27T01:16:05.543Z,6.17
2023-04-27T01:16:39.207Z,6.17
2023-04-27T01:17:12.549Z,6.17
2023-04-27T01:17:46.818Z,6.17
2023-04-27T01:18:20.097Z,6.17
2023-04-27T01:18:53.559Z,6.17
2023-04-27T01:19:27.061Z,6.16
2023-04-27T01:20:00.501Z,6.17
2023-04-27T01:20:33.811Z,6.16
2023-04-27T01:21:07.581Z,6.17
2023-04-27T01:21:41.084Z,6.16
2023-04-27T01:22:15.471Z,6.16
2023-04-27T01:22:48.690Z,6.16
2023-04-27T01:23:22.154Z,6.15
2023-04-27T01:23:55.765Z,6.14
2023-04-27T01:24:28.967Z,6.14
2023-04-27T01:25:02.075Z,6.16
2023-04-27T01:25:35.272Z,6.14
2023-04-27T01:26:08.485Z,6.14
2023-04-27T01:26:41.720Z,6.14
2023-04-27T01:27:14.919Z,6.14
2023-04-27T01:27:48.469Z,6.14
2023-04-27T01:28:21.640Z,6.14
2023-04-27T01:28:54.793Z,6.14
2023-04-27T01:29:28.183Z,6.15
2023-04-27T01:30:01.284Z,6.14
2023-04-27T01:30:34.470Z,6.15
2023-04-27T01:31:07.736Z,6.16
2023-04-27T01:31:41.131Z,6.16
2023-04-27T01:32:14.535Z,6.16
2023-04-27T01:32:47.682Z,6.16
2023-04-27T01:33:21.109Z,6.15
2023-04-27T01:33:55.217Z,6.16
2023-04-27T01:34:28.393Z,6.16
2023-04-27T01:35:01.572Z,6.15
2023-04-27T01:35:34.722Z,6.15
2023-04-27T01:36:08.710Z,6.14
2023-04-27T01:36:41.825Z,6.14
2023-04-27T01:37:16.072Z,6.13
2023-04-27T01:37:49.151Z,6.14
2023-04-27T01:38:24.451Z,6.14
2023-04-27T01:38:58.324Z,6.14
2023-04-27T01:39:31.603Z,6.14
2023-04-27T01:40:06.836Z,6.14
2023-04-27T01:40:39.989Z,6.15
2023-04-27T01:41:13.347Z,6.14
2023-04-27T01:41:46.433Z,6.14
2023-04-27T01:42:19.584Z,6.14
2023-04-27T01:42:52.676Z,6.14
2023-04-27T01:43:26.610Z,6.14
2023-04-27T01:43:59.754Z,6.13
2023-04-27T01:44:33.119Z,6.14
2023-04-27T01:45:06.717Z,6.14
2023-04-27T01:45:40.314Z,6.14
2023-04-27T01:46:14.383Z,6.14
2023-04-27T01:46:47.546Z,6.14
2023-04-27T01:47:21.139Z,6.13
2023-04-27T01:47:54.379Z,6.13
2023-04-27T01:48:27.607Z,6.13
2023-04-27T01:49:01.724Z,6.13
2023-04-27T01:49:34.927Z,6.13
2023-04-27T01:50:08.207Z,6.13
2023-04-27T01:50:41.421Z,6.13
2023-04-27T01:51:15.430Z,6.12
2023-04-27T01:51:48.622Z,6.12
2023-04-27T01:52:21.691Z,6.12
2023-04-27T01:52:54.858Z,6.13
2023-04-27T01:53:28.162Z,6.12
2023-04-27T01:54:01.288Z,6.12
2023-04-27T01:54:34.527Z,6.12
2023-04-27T01:55:08.203Z,6.12
2023-04-27T01:55:41.757Z,6.12
2023-04-27T01:56:14.975Z,6.13
2023-04-27T01:56:48.076Z,6.12
2023-04-27T01:57:21.655Z,6.12
2023-04-27T01:57:54.982Z,6.12
2023-04-27T01:58:28.419Z,6.12
2023-04-27T01:59:01.518Z,6.12
2023-04-27T01:59:34.654Z,6.12
2023-04-27T02:00:08.457Z,6.11
2023-04-27T02:00:41.577Z,6.11
2023-04-27T02:01:14.859Z,6.11
2023-04-27T02:01:48.123Z,6.11
2023-04-27T02:02:21.453Z,6.11
2023-04-27T02:02:57.736Z,6.11
2023-04-27T02:03:31.262Z,6.11
2023-04-27T02:04:04.832Z,6.11
2023-04-27T02:04:38.444Z,6.11
2023-04-27T02:05:11.910Z,6.12
2023-04-27T02:05:45.195Z,6.11
2023-04-27T02:06:18.286Z,6.12
2023-04-27T02:06:51.510Z,6.12
2023-04-27T02:07:24.636Z,6.11
2023-04-27T02:07:57.858Z,6.12
2023-04-27T02:08:31.047Z,6.11
2023-04-27T02:09:04.183Z,6.10
2023-04-27T02:09:37.664Z,6.10
2023-04-27T02:10:11.133Z,6.08
2023-04-27T02:10:44.370Z,6.08
2023-04-27T02:11:17.499Z,6.07
2023-04-27T02:11:50.635Z,6.06
2023-04-27T02:12:23.745Z,6.07
2023-04-27T02:12:57.420Z,6.07
2023-04-27T02:13:30.617Z,6.07
2023-04-27T02:14:03.779Z,6.07
2023-04-27T02:14:36.993Z,6.07
2023-04-27T02:15:10.261Z,6.07
2023-04-27T02:15:43.456Z,6.07
2023-04-27T02:16:16.647Z,6.07
2023-04-27T02:16:49.862Z,6.07
2023-04-27T02:17:23.354Z,6.07
2023-04-27T02:17:57.503Z,6.07
2023-04-27T02:18:30.974Z,6.07
2023-04-27T02:19:04.506Z,6.07
2023-04-27T02:19:37.743Z,6.08
2023-04-27T02:20:11.497Z,6.07
2023-04-27T02:20:44.730Z,6.07
2023-04-27T02:21:17.947Z,6.06
2023-04-27T02:21:51.025Z,6.06
2023-04-27T02:22:24.242Z,6.06
2023-04-27T02:22:57.781Z,6.06
2023-04-27T02:23:30.877Z,6.06
2023-04-27T02:24:04.766Z,6.06
2023-04-27T02:24:37.927Z,6.06
2023-04-27T02:25:11.933Z,6.06
2023-04-27T02:25:47.063Z,6.06
2023-04-27T02:26:20.824Z,6.07
2023-04-27T02:26:54.037Z,6.07
2023-04-27T02:27:27.326Z,6.06
2023-04-27T02:28:01.267Z,6.06
2023-04-27T02:28:35.068Z,6.06
2023-04-27T02:29:08.672Z,6.06
2023-04-27T02:29:43.542Z,6.07
2023-04-27T02:30:17.042Z,6.07
2023-04-27T02:30:50.730Z,6.06
2023-04-27T02:31:24.123Z,6.06
2023-04-27T02:31:57.396Z,6.06
2023-04-27T02:32:31.393Z,6.06
2023-04-27T02:33:05.336Z,6.06
2023-04-27T02:33:38.624Z,6.04
2023-04-27T02:34:11.809Z,6.04
2023-04-27T02:34:45.385Z,6.04
2023-04-27T02:35:18.647Z,6.04
2023-04-27T02:35:51.974Z,6.04
2023-04-27T02:36:25.266Z,6.04
2023-04-27T02:36:58.482Z,6.04
2023-04-27T02:37:31.687Z,6.04
2023-04-27T02:38:04.845Z,6.04
2023-04-27T02:38:38.063Z,6.03
2023-04-27T02:39:13.055Z,6.03
2023-04-27T02:39:47.759Z,6.02
2023-04-27T02:40:21.288Z,6.02
2023-04-27T02:40:55.248Z,6.02
2023-04-27T02:41:31.580Z,6.02
2023-04-27T02:42:04.781Z,6.02
2023-04-27T02:42:39.196Z,6.02
2023-04-27T02:43:12.734Z,6.01
2023-04-27T02:43:47.060Z,6.01
2023-04-27T02:44:20.147Z,6.01
2023-04-27T02:44:53.352Z,6.01
2023-04-27T02:45:26.529Z,6.02
2023-04-27T02:46:06.013Z,6.01
2023-04-27T02:46:39.277Z,6.01
2023-04-27T02:47:12.762Z,6.01
2023-04-27T02:47:45.904Z,6.01
2023-04-27T02:48:19.195Z,6.01
2023-04-27T02:48:52.359Z,6.01
2023-04-27T02:49:25.509Z,6.01
2023-04-27T02:49:58.732Z,6.01
2023-04-27T02:50:31.818Z,6.00
2023-04-27T02:51:05.388Z,6.00
2023-04-27T02:51:38.598Z,6.00
2023-04-27T02:52:11.851Z,6.00
2023-04-27T02:52:45.013Z,6.00
2023-04-27T02:53:18.343Z,6.00
2023-04-27T02:53:53.309Z,6.00
2023-04-27T02:54:26.787Z,6.00
2023-04-27T02:55:00.158Z,6.00
2023-04-27T02:55:33.460Z,6.01
2023-04-27T02:56:06.662Z,6.00
2023-04-27T02:56:39.930Z,6.00
2023-04-27T02:57:13.106Z,6.00
2023-04-27T02:57:46.587Z,6.00
2023-04-27T02:58:20.215Z,5.99
2023-04-27T02:58:53.454Z,5.99
2023-04-27T02:59:26.786Z,5.99
2023-04-27T03:00:00.048Z,5.99
2023-04-27T03:00:33.316Z,5.99
2023-04-27T03:01:06.547Z,5.98
2023-04-27T03:01:39.905Z,5.98
2023-04-27T03:02:13.130Z,5.97
2023-04-27T03:02:46.549Z,5.97
2023-04-27T03:03:20.023Z,5.97
2023-04-27T03:03:53.579Z,5.97
2023-04-27T03:04:28.393Z,5.97
2023-04-27T03:05:01.897Z,5.96
2023-04-27T03:05:35.064Z,5.97
2023-04-27T03:06:08.231Z,5.97
2023-04-27T03:06:41.792Z,5.97
2023-04-27T03:07:14.944Z,5.96
2023-04-27T03:07:48.156Z,5.96
2023-04-27T03:08:21.306Z,5.96
2023-04-27T03:08:54.561Z,5.95
2023-04-27T03:09:27.698Z,5.95
2023-04-27T03:10:00.884Z,5.95
2023-04-27T03:10:34.056Z,5.95
2023-04-27T03:11:07.471Z,5.95
2023-04-27T03:11:40.585Z,5.95
2023-04-27T03:12:13.897Z,5.94
2023-04-27T03:12:47.109Z,5.94
2023-04-27T03:13:20.564Z,5.94
2023-04-27T03:13:53.713Z,5.94
2023-04-27T03:14:26.937Z,5.94
2023-04-27T03:15:01.221Z,5.94
2023-04-27T03:15:35.036Z,5.93
2023-04-27T03:16:11.821Z,5.93
2023-04-27T03:16:45.270Z,5.93
2023-04-27T03:17:18.526Z,5.93
2023-04-27T03:17:51.727Z,5.93
2023-04-27T03:18:25.022Z,5.92
2023-04-27T03:18:58.248Z,5.93
2023-04-27T03:19:31.461Z,5.92
2023-04-27T03:20:07.221Z,5.92
2023-04-27T03:20:40.483Z,5.91
2023-04-27T03:21:13.781Z,5.92
2023-04-27T03:21:46.925Z,5.92
2023-04-27T03:22:20.038Z,5.91
2023-04-27T03:22:53.128Z,5.92
2023-04-27T03:23:26.263Z,5.92
2023-04-27T03:23:59.314Z,5.92
2023-04-27T03:24:33.394Z,5.92
2023-04-27T03:25:07.184Z,5.91
2023-04-27T03:25:40.390Z,5.91
2023-04-27T03:26:14.354Z,5.91
2023-04-27T03:26:47.742Z,5.91
2023-04-27T03:27:20.964Z,5.91
2023-04-27T03:27:54.104Z,5.91
2023-04-27T03:28:27.320Z,5.91
2023-04-27T03:29:01.141Z,5.90
2023-04-27T03:29:34.336Z,5.90
2023-04-27T03:30:07.778Z,5.91
2023-04-27T03:30:41.511Z,5.89
2023-04-27T03:31:15.175Z,5.89
2023-04-27T03:31:48.393Z,5.89
2023-04-27T03:32:21.677Z,5.89
2023-04-27T03:32:54.934Z,5.89
2023-04-27T03:33:28.996Z,5.88
2023-04-27T03:34:02.486Z,5.88
2023-04-27T03:34:35.688Z,5.89
2023-04-27T03:35:10.050Z,5.89
2023-04-27T03:35:43.332Z,5.89
2023-04-27T03:36:16.679Z,5.89
2023-04-27T03:36:49.924Z,5.90
2023-04-27T03:37:23.057Z,5.89
2023-04-27T03:37:56.181Z,5.89
2023-04-27T03:38:29.458Z,5.89
2023-04-27T03:39:03.099Z,5.89
2023-04-27T03:39:36.482Z,5.89
2023-04-27T03:40:10.156Z,5.89
2023-04-27T03:40:43.220Z,5.89
2023-04-27T03:41:16.303Z,5.89
2023-04-27T03:41:49.469Z,5.89
2023-04-27T03:42:22.743Z,5.90
2023-04-27T03:42:56.640Z,5.90
2023-04-27T03:43:31.306Z,5.90
2023-04-27T03:44:04.573Z,5.90
2023-04-27T03:44:37.768Z,5.90
2023-04-27T03:45:12.518Z,5.91
2023-04-27T03:45:46.048Z,5.91
2023-04-27T03:46:19.249Z,5.91
2023-04-27T03:46:52.504Z,5.91
2023-04-27T03:47:25.664Z,5.91
2023-04-27T03:47:59.427Z,5.91
2023-04-27T03:48:32.775Z,5.91
2023-04-27T03:49:05.988Z,5.92
2023-04-27T03:49:39.277Z,5.92
2023-04-27T03:50:12.441Z,5.92
2023-04-27T03:50:46.792Z,5.91
2023-04-27T03:51:19.989Z,5.91
2023-04-27T03:51:53.316Z,5.91
2023-04-27T03:52:26.755Z,5.91
2023-04-27T03:52:59.990Z,5.91
2023-04-27T03:53:33.204Z,5.91
2023-04-27T03:54:07.015Z,5.91
2023-04-27T03:54:40.258Z,5.91
2023-04-27T03:55:13.838Z,5.91
2023-04-27T03:55:47.913Z,5.91
2023-04-27T03:56:21.384Z,5.91
2023-04-27T03:56:54.664Z,5.91
2023-04-27T03:57:27.807Z,5.92
2023-04-27T03:58:01.201Z,5.92
2023-04-27T03:58:34.494Z,5.93
2023-04-27T03:59:07.693Z,5.94
2023-04-27T03:59:40.986Z,5.94
2023-04-27T04:00:16.056Z,5.94
2023-04-27T04:00:49.236Z,5.95
2023-04-27T04:01:22.471Z,5.95
2023-04-27T04:01:55.748Z,5.96
2023-04-27T04:02:28.966Z,5.96
2023-04-27T04:03:03.031Z,5.96
2023-04-27T04:04:10.536Z,5.97
2023-04-27T04:04:44.083Z,5.97
2023-04-27T04:05:17.558Z,5.97
2023-04-27T04:05:50.799Z,5.98
2023-04-27T04:06:23.984Z,5.98
2023-04-27T04:06:57.070Z,5.98
2023-04-27T04:07:30.188Z,5.99
2023-04-27T04:08:03.798Z,5.99
2023-04-27T04:08:37.761Z,6.00
2023-04-27T04:09:11.164Z,6.00
2023-04-27T04:09:44.818Z,6.00
2023-04-27T04:10:18.676Z,6.00
2023-04-27T04:10:51.975Z,6.01
2023-04-27T04:11:25.176Z,6.01
2023-04-27T04:11:58.400Z,6.01
2023-04-27T04:12:31.923Z,6.00
2023-04-27T04:13:04.993Z,6.01
2023-04-27T04:13:38.338Z,6.01
2023-04-27T04:14:11.884Z,6.01
2023-04-27T04:14:49.124Z,6.01
2023-04-27T04:15:22.390Z,6.02
2023-04-27T04:16:06.186Z,6.02
2023-04-27T04:16:39.676Z,6.03
2023-04-27T04:17:13.066Z,6.03
2023-04-27T04:17:47.636Z,6.03
2023-04-27T04:18:20.843Z,6.04
2023-04-27T04:18:54.131Z,6.04
2023-04-27T04:19:27.361Z,6.04
2023-04-27T04:20:01.823Z,6.04
2023-04-27T04:20:36.325Z,6.05
2023-04-27T04:21:10.355Z,6.05
2023-04-27T04:21:43.563Z,6.05
2023-04-27T04:22:16.939Z,6.06
2023-04-27T04:22:50.385Z,6.06
2023-04-27T04:23:23.884Z,6.06
2023-04-27T04:23:57.487Z,6.07
2023-04-27T04:24:30.920Z,6.07
2023-04-27T04:25:04.623Z,6.08
2023-04-27T04:25:40.508Z,6.08
2023-04-27T04:26:15.169Z,6.09
2023-04-27T04:26:48.906Z,6.10
2023-04-27T04:27:22.255Z,6.10
2023-04-27T04:27:55.601Z,6.11
2023-04-27T04:28:28.851Z,6.11
2023-04-27T04:29:02.254Z,6.12
2023-04-27T04:29:35.670Z,6.13
2023-04-27T04:30:09.041Z,6.13
2023-04-27T04:30:43.524Z,6.12
2023-04-27T04:31:18.511Z,6.13
2023-04-27T04:31:52.409Z,6.14
2023-04-27T04:32:31.661Z,6.14
2023-04-27T04:33:05.020Z,6.15
2023-04-27T04:33:38.359Z,6.16
2023-04-27T04:34:11.622Z,6.17
2023-04-27T04:34:49.671Z,6.17
2023-04-27T04:35:22.989Z,6.18
2023-04-27T04:35:56.352Z,6.19
2023-04-27T04:36:29.462Z,6.19
2023-04-27T04:37:03.010Z,6.20
2023-04-27T04:37:36.763Z,6.21
2023-04-27T04:38:13.381Z,6.21
2023-04-27T04:38:47.472Z,6.21
2023-04-27T04:39:20.949Z,6.22
2023-04-27T04:39:54.353Z,6.22
2023-04-27T04:40:27.843Z,6.23
2023-04-27T04:41:01.275Z,6.24
2023-04-27T04:41:34.492Z,6.24
2023-04-27T04:42:07.747Z,6.25
2023-04-27T04:42:41.616Z,6.26
2023-04-27T04:43:14.763Z,6.28
2023-04-27T04:43:49.760Z,6.29
2023-04-27T04:44:23.041Z,6.29
2023-04-27T04:44:57.277Z,6.31
2023-04-27T04:45:30.588Z,6.32
2023-04-27T04:46:03.789Z,6.33
2023-04-27T04:46:37.572Z,6.34
2023-04-27T04:47:10.977Z,6.35
2023-04-27T04:47:44.212Z,6.36
2023-04-27T04:48:18.351Z,6.37
2023-04-27T04:48:53.995Z,6.38
2023-04-27T04:49:28.208Z,6.39
2023-04-27T04:50:01.767Z,6.40
2023-04-27T04:50:35.183Z,6.41
2023-04-27T04:51:08.337Z,6.42
2023-04-27T04:51:45.906Z,6.42
2023-04-27T04:52:19.276Z,6.44
2023-04-27T04:52:52.639Z,6.45
2023-04-27T04:53:26.549Z,6.46
2023-04-27T04:54:01.725Z,6.47
2023-04-27T04:54:35.560Z,6.47
2023-04-27T04:55:08.862Z,6.48
2023-04-27T04:55:42.126Z,6.49
2023-04-27T04:56:15.286Z,6.50
2023-04-27T04:56:48.523Z,6.50
2023-04-27T04:57:22.419Z,6.52
2023-04-27T04:57:55.713Z,6.54
2023-04-27T04:58:28.882Z,6.55
2023-04-27T04:59:02.259Z,6.55
2023-04-27T04:59:35.490Z,6.55
2023-04-27T05:00:13.164Z,6.56
2023-04-27T05:00:46.550Z,6.57
2023-04-27T05:01:19.743Z,6.58
2023-04-27T05:01:55.895Z,6.58
2023-04-27T05:02:29.584Z,6.59
2023-04-27T05:03:03.266Z,6.60
2023-04-27T05:03:36.885Z,6.60
2023-04-27T05:04:11.355Z,6.59
2023-04-27T05:04:45.022Z,6.60
2023-04-27T05:05:18.556Z,6.60
2023-04-27T05:05:51.733Z,6.60
2023-04-27T05:06:25.077Z,6.61
2023-04-27T05:07:00.281Z,6.62
2023-04-27T05:07:34.023Z,6.62
2023-04-27T05:08:07.405Z,6.62
2023-04-27T05:08:40.887Z,6.62
2023-04-27T05:09:14.332Z,6.62
2023-04-27T05:09:47.977Z,6.62
2023-04-27T05:10:21.273Z,6.62
2023-04-27T05:10:54.682Z,6.62
2023-04-27T05:11:28.116Z,6.63
2023-04-27T05:12:02.095Z,6.64
2023-04-27T05:12:35.389Z,6.66
2023-04-27T05:13:08.725Z,6.67
2023-04-27T05:13:42.077Z,6.70
2023-04-27T05:14:15.253Z,6.72
2023-04-27T05:14:48.699Z,6.74
2023-04-27T05:15:21.980Z,6.75
2023-04-27T05:15:55.268Z,6.78
2023-04-27T05:16:28.579Z,6.80
2023-04-27T05:17:01.947Z,6.82
2023-04-27T05:17:35.171Z,6.85
2023-04-27T05:18:08.489Z,6.87
2023-04-27T05:18:41.968Z,6.89
2023-04-27T05:19:18.689Z,6.92
2023-04-27T05:19:51.891Z,6.95
2023-04-27T05:20:25.227Z,6.97
2023-04-27T05:20:58.656Z,6.99
2023-04-27T05:21:32.347Z,7.01
2023-04-27T05:22:05.756Z,7.04
2023-04-27T05:22:39.083Z,7.07
2023-04-27T05:23:12.525Z,7.08
2023-04-27T05:23:45.706Z,7.11
2023-04-27T05:24:18.872Z,7.13
2023-04-27T05:24:52.190Z,7.15
2023-04-27T05:25:25.443Z,7.16
2023-04-27T05:25:58.713Z,7.19
2023-04-27T05:26:31.972Z,7.21
2023-04-27T05:27:05.195Z,7.23
2023-04-27T05:27:38.499Z,7.25
2023-04-27T05:28:11.829Z,7.27
2023-04-27T05:28:45.322Z,7.29
2023-04-27T05:29:18.605Z,7.31
2023-04-27T05:29:51.897Z,7.33
2023-04-27T05:30:25.460Z,7.35
2023-04-27T05:30:58.638Z,7.37
2023-04-27T05:31:31.988Z,7.38
2023-04-27T05:32:05.483Z,7.41
2023-04-27T05:32:39.794Z,7.43
2023-04-27T05:33:13.126Z,7.44
2023-04-27T05:33:46.594Z,7.47
2023-04-27T05:34:20.127Z,7.48
2023-04-27T05:34:53.406Z,7.50
2023-04-27T05:35:26.600Z,7.51
2023-04-27T05:36:00.233Z,7.53
2023-04-27T05:36:33.633Z,7.55
2023-04-27T05:37:07.558Z,7.57
2023-04-27T05:37:40.995Z,7.60
2023-04-27T05:38:17.665Z,7.63
2023-04-27T05:38:51.004Z,7.65
2023-04-27T05:39:24.338Z,7.68
2023-04-27T05:39:57.476Z,7.70
2023-04-27T05:40:30.954Z,7.72
2023-04-27T05:41:04.270Z,7.74
2023-04-27T05:41:37.719Z,7.77
2023-04-27T05:42:11.036Z,7.79
2023-04-27T05:42:46.679Z,7.82
2023-04-27T05:43:19.885Z,7.84
2023-04-27T05:43:53.822Z,7.86
2023-04-27T05:44:29.676Z,7.90
2023-04-27T05:45:04.334Z,7.93
2023-04-27T05:45:39.650Z,7.96
2023-04-27T05:46:16.599Z,7.99
2023-04-27T05:46:50.086Z,8.02
2023-04-27T05:47:23.607Z,8.04
2023-04-27T05:47:56.861Z,8.07
2023-04-27T05:48:30.256Z,8.09
2023-04-27T05:49:03.715Z,8.11
2023-04-27T05:49:37.477Z,8.13
2023-04-27T05:50:11.499Z,8.16
2023-04-27T05:50:44.765Z,8.18
2023-04-27T05:51:18.123Z,8.21
2023-04-27T05:51:52.194Z,8.23
2023-04-27T05:52:31.133Z,8.25
2023-04-27T05:53:05.957Z,8.27
2023-04-27T05:53:39.344Z,8.29
2023-04-27T05:54:12.516Z,8.31
2023-04-27T05:54:49.845Z,8.34
2023-04-27T05:55:23.453Z,8.37
2023-04-27T05:55:59.350Z,8.39
2023-04-27T05:56:32.706Z,8.42
2023-04-27T05:57:06.385Z,8.44
2023-04-27T05:57:39.774Z,8.46
2023-04-27T05:58:13.667Z,8.49
2023-04-27T05:58:47.734Z,8.51
2023-04-27T05:59:22.186Z,8.54
2023-04-27T05:59:55.933Z,8.56
2023-04-27T06:00:29.716Z,8.58
2023-04-27T06:01:04.216Z,8.60
2023-04-27T06:01:37.487Z,8.62
2023-04-27T06:02:10.866Z,8.65
2023-04-27T06:02:44.549Z,8.67
2023-04-27T06:03:18.101Z,8.69
2023-04-27T06:03:51.966Z,8.71
2023-04-27T06:04:25.705Z,8.74
2023-04-27T06:04:59.220Z,8.75
2023-04-27T06:05:34.684Z,8.78
2023-04-27T06:06:08.236Z,8.81
2023-04-27T06:06:41.526Z,8.82
2023-04-27T06:07:16.352Z,8.84
2023-04-27T06:07:49.644Z,8.86
2023-04-27T06:08:23.094Z,8.88
2023-04-27T06:08:56.300Z,8.89
2023-04-27T06:09:30.400Z,8.91
2023-04-27T06:10:03.608Z,8.92
2023-04-27T06:10:37.174Z,8.94
2023-04-27T06:11:10.894Z,8.96
2023-04-27T06:11:44.095Z,8.98
2023-04-27T06:12:17.405Z,8.99
2023-04-27T06:12:50.461Z,9.01
2023-04-27T06:13:23.915Z,9.01
2023-04-27T06:13:57.186Z,9.02
2023-04-27T06:14:33.724Z,9.03
2023-04-27T06:15:10.543Z,9.05
2023-04-27T06:15:44.295Z,9.07
2023-04-27T06:16:17.787Z,9.09
2023-04-27T06:16:51.313Z,9.11
2023-04-27T06:17:24.523Z,9.12
2023-04-27T06:17:57.746Z,9.14
2023-04-27T06:18:31.913Z,9.16
2023-04-27T06:19:05.203Z,9.17
2023-04-27T06:19:38.372Z,9.19
2023-04-27T06:20:12.131Z,9.22
2023-04-27T06:20:45.353Z,9.23
2023-04-27T06:21:18.660Z,9.24
2023-04-27T06:21:52.037Z,9.25
2023-04-27T06:22:25.317Z,9.26
2023-04-27T06:23:00.393Z,9.24
2023-04-27T06:23:33.648Z,9.23
2023-04-27T06:24:07.083Z,9.20
2023-04-27T06:24:42.698Z,9.19
2023-04-27T06:25:15.817Z,9.17
2023-04-27T06:25:48.952Z,9.16
2023-04-27T06:26:22.102Z,9.14
2023-04-27T06:26:55.274Z,9.12
2023-04-27T06:27:28.485Z,9.10
2023-04-27T06:28:01.701Z,9.09
2023-04-27T06:28:34.903Z,9.10
2023-04-27T06:29:08.387Z,9.12
2023-04-27T06:29:41.741Z,9.15
2023-04-27T06:30:14.980Z,9.16
2023-04-27T06:30:48.237Z,9.19
2023-04-27T06:31:21.610Z,9.22
2023-04-27T06:31:54.832Z,9.24
2023-04-27T06:32:27.983Z,9.26
2023-04-27T06:33:01.189Z,9.28
2023-04-27T06:33:34.377Z,9.28
2023-04-27T06:34:07.808Z,9.29
2023-04-27T06:34:41.647Z,9.31
2023-04-27T06:35:15.321Z,9.33
2023-04-27T06:35:48.537Z,9.35
2023-04-27T06:36:22.165Z,9.38
2023-04-27T06:36:55.339Z,9.41
2023-04-27T06:37:28.498Z,9.44
2023-04-27T06:38:01.719Z,9.46
2023-04-27T06:38:34.879Z,9.49
2023-04-27T06:39:08.047Z,9.51
2023-04-27T06:39:41.642Z,9.53
2023-04-27T06:40:15.058Z,9.55
2023-04-27T06:40:57.286Z,9.56
2023-04-27T06:41:30.663Z,9.59
2023-04-27T06:42:06.684Z,9.60
2023-04-27T06:42:39.825Z,9.63
2023-04-27T06:43:13.049Z,9.65
2023-04-27T06:43:46.517Z,9.67
2023-04-27T06:44:19.754Z,9.69
2023-04-27T06:44:59.109Z,9.71
2023-04-27T06:45:32.331Z,9.72
2023-04-27T06:46:05.763Z,9.73
2023-04-27T06:46:39.265Z,9.74
2023-04-27T06:47:12.603Z,9.75
2023-04-27T06:47:45.876Z,9.75
2023-04-27T06:48:19.106Z,9.77
2023-04-27T06:48:53.007Z,9.79
2023-04-27T06:49:26.213Z,9.80
2023-04-27T06:49:59.550Z,9.81
2023-04-27T06:50:32.788Z,9.83
2023-04-27T06:51:05.932Z,9.84
2023-04-27T06:51:39.319Z,9.85
2023-04-27T06:52:12.403Z,9.87
2023-04-27T06:52:45.856Z,9.89
2023-04-27T06:53:19.083Z,9.90
2023-04-27T06:53:53.226Z,9.90
2023-04-27T06:54:26.798Z,9.91
2023-04-27T06:55:00.061Z,9.92
2023-04-27T06:55:33.277Z,9.94
2023-04-27T06:56:07.336Z,9.94
2023-04-27T06:56:40.584Z,9.94
2023-04-27T06:57:13.901Z,9.94
2023-04-27T06:57:47.099Z,9.95
2023-04-27T06:58:20.371Z,9.95
2023-04-27T06:58:53.520Z,9.95
2023-04-27T06:59:27.596Z,9.95
2023-04-27T07:00:00.798Z,9.94
2023-04-27T07:00:34.157Z,9.94
2023-04-27T07:01:07.344Z,9.95
2023-04-27T07:01:40.869Z,9.96
2023-04-27T07:02:14.175Z,9.98
2023-04-27T07:02:47.494Z,10.00
2023-04-27T07:03:22.545Z,10.01
2023-04-27T07:03:55.961Z,10.02
2023-04-27T07:04:30.569Z,10.02
2023-04-27T07:05:04.168Z,10.01
2023-04-27T07:05:37.455Z,10.01
2023-04-27T07:06:10.985Z,10.02
2023-04-27T07:06:44.238Z,10.03
2023-04-27T07:07:18.465Z,10.04
2023-04-27T07:07:51.689Z,10.06
2023-04-27T07:08:24.957Z,10.06
2023-04-27T07:08:58.430Z,10.06
2023-04-27T07:09:32.003Z,10.03
2023-04-27T07:10:06.210Z,10.01
2023-04-27T07:10:39.463Z,9.99
2023-04-27T07:11:12.806Z,9.96
2023-04-27T07:11:46.121Z,9.91
2023-04-27T07:12:19.373Z,9.87
2023-04-27T07:12:52.655Z,9.84
2023-04-27T07:13:25.922Z,9.82
2023-04-27T07:13:59.184Z,9.83
2023-04-27T07:14:33.938Z,9.83
2023-04-27T07:15:07.695Z,9.83
2023-04-27T07:15:41.525Z,9.83
2023-04-27T07:16:15.825Z,9.86
2023-04-27T07:16:49.114Z,9.89
2023-04-27T07:17:22.316Z,9.90
2023-04-27T07:17:55.627Z,9.92
2023-04-27T07:18:28.912Z,9.95
2023-04-27T07:19:02.027Z,9.99
2023-04-27T07:19:37.122Z,10.03
2023-04-27T07:20:10.396Z,10.01
2023-04-27T07:20:43.557Z,10.03
2023-04-27T07:21:16.957Z,10.04
2023-04-27T07:21:50.624Z,10.05
2023-04-27T07:22:23.781Z,10.07
2023-04-27T07:22:57.068Z,10.11
2023-04-27T07:23:30.418Z,10.14
2023-04-27T07:24:04.386Z,10.14
2023-04-27T07:24:37.468Z,10.14
2023-04-27T07:25:10.749Z,10.17
2023-04-27T07:25:45.716Z,10.21
2023-04-27T07:26:18.975Z,10.24
2023-04-27T07:26:52.303Z,10.28
2023-04-27T07:27:26.825Z,10.28
2023-04-27T07:28:00.011Z,10.28